sensor_id;sensor_type;location;lat;lon;timestamp;pressure;altitude;pressure_sealevel;temperature;humidity
66887;BME280;53798;51.680;5.976;2022-11-20T00:01:30;101272.91;;;-3.65;84.14
66887;BME280;53798;51.680;5.976;2022-11-20T00:03:59;101268.44;;;-3.69;84.10
66887;BME280;53798;51.680;5.976;2022-11-20T00:06:27;101269.19;;;-3.73;84.20
66887;BME280;53798;51.680;5.976;2022-11-20T00:08:57;101272.59;;;-3.75;84.23
66887;BME280;53798;51.680;5.976;2022-11-20T00:11:29;101273.34;;;-3.77;84.35
66887;BME280;53798;51.680;5.976;2022-11-20T00:13:59;101262.19;;;-3.76;84.80
66887;BME280;53798;51.680;5.976;2022-11-20T00:16:30;101254.41;;;-3.78;85.05
66887;BME280;53798;51.680;5.976;2022-11-20T00:18:59;101258.72;;;-3.78;85.13
66887;BME280;53798;51.680;5.976;2022-11-20T00:21:28;101255.25;;;-3.79;84.96
66887;BME280;53798;51.680;5.976;2022-11-20T00:23:56;101250.91;;;-3.80;84.79
66887;BME280;53798;51.680;5.976;2022-11-20T00:26:25;101248.25;;;-3.83;84.82
66887;BME280;53798;51.680;5.976;2022-11-20T00:28:56;101249.09;;;-3.82;84.99
66887;BME280;53798;51.680;5.976;2022-11-20T00:31:25;101232.66;;;-3.86;85.46
66887;BME280;53798;51.680;5.976;2022-11-20T00:33:54;101229.38;;;-3.82;85.59
66887;BME280;53798;51.680;5.976;2022-11-20T00:36:24;101231.13;;;-3.81;85.94
66887;BME280;53798;51.680;5.976;2022-11-20T00:38:57;101239.69;;;-3.82;85.78
66887;BME280;53798;51.680;5.976;2022-11-20T00:41:29;101236.13;;;-3.85;85.49
66887;BME280;53798;51.680;5.976;2022-11-20T00:43:56;101229.94;;;-3.91;85.65
66887;BME280;53798;51.680;5.976;2022-11-20T00:46:26;101232.34;;;-3.95;85.26
66887;BME280;53798;51.680;5.976;2022-11-20T00:48:54;101229.66;;;-3.98;85.51
66887;BME280;53798;51.680;5.976;2022-11-20T00:51:24;101233.13;;;-3.98;85.57
66887;BME280;53798;51.680;5.976;2022-11-20T00:53:56;101230.47;;;-3.99;85.87
66887;BME280;53798;51.680;5.976;2022-11-20T00:56:25;101227.81;;;-4.02;85.70
66887;BME280;53798;51.680;5.976;2022-11-20T00:58:52;101231.94;;;-4.06;85.58
66887;BME280;53798;51.680;5.976;2022-11-20T01:01:24;101227.66;;;-4.07;85.83
66887;BME280;53798;51.680;5.976;2022-11-20T01:03:54;101232.81;;;-4.07;85.88
66887;BME280;53798;51.680;5.976;2022-11-20T01:06:25;101227.56;;;-4.09;85.75
66887;BME280;53798;51.680;5.976;2022-11-20T01:08:56;101217.44;;;-4.04;86.42
66887;BME280;53798;51.680;5.976;2022-11-20T01:11:31;101220.91;;;-4.03;86.72
66887;BME280;53798;51.680;5.976;2022-11-20T01:14:00;101218.25;;;-4.05;86.74
66887;BME280;53798;51.680;5.976;2022-11-20T01:16:34;101215.63;;;-4.07;86.96
66887;BME280;53798;51.680;5.976;2022-11-20T01:19:06;101215.69;;;-4.05;86.56
66887;BME280;53798;51.680;5.976;2022-11-20T01:21:38;101218.97;;;-4.09;86.88
66887;BME280;53798;51.680;5.976;2022-11-20T01:24:10;101222.31;;;-4.12;86.94
66887;BME280;53798;51.680;5.976;2022-11-20T01:26:43;101219.81;;;-4.10;87.07
66887;BME280;53798;51.680;5.976;2022-11-20T01:29:16;101210.38;;;-4.10;87.40
66887;BME280;53798;51.680;5.976;2022-11-20T01:31:49;101215.50;;;-4.10;87.30
66887;BME280;53798;51.680;5.976;2022-11-20T01:34:18;101206.81;;;-4.13;87.09
66887;BME280;53798;51.680;5.976;2022-11-20T01:36:48;101205.94;;;-4.14;87.10
66887;BME280;53798;51.680;5.976;2022-11-20T01:39:19;101211.13;;;-4.12;87.55
66887;BME280;53798;51.680;5.976;2022-11-20T01:41:50;101202.47;;;-4.14;87.42
66887;BME280;53798;51.680;5.976;2022-11-20T01:47:44;101198.97;;;-4.16;87.08
66887;BME280;53798;51.680;5.976;2022-11-20T01:50:17;101204.84;;;-4.21;87.16
66887;BME280;53798;51.680;5.976;2022-11-20T01:53:03;101211.63;;;-4.23;87.32
66887;BME280;53798;51.680;5.976;2022-11-20T01:55:43;101206.31;;;-4.27;87.45
66887;BME280;53798;51.680;5.976;2022-11-20T01:58:15;101203.69;;;-4.29;87.25
66887;BME280;53798;51.680;5.976;2022-11-20T02:00:48;101212.28;;;-4.28;87.27
66887;BME280;53798;51.680;5.976;2022-11-20T02:03:16;101195.97;;;-4.29;87.61
66887;BME280;53798;51.680;5.976;2022-11-20T02:05:57;101201.03;;;-4.30;87.37
66887;BME280;53798;51.680;5.976;2022-11-20T02:08:32;101206.97;;;-4.33;87.42
66887;BME280;53798;51.680;5.976;2022-11-20T02:11:00;101195.03;;;-4.31;87.43
66887;BME280;53798;51.680;5.976;2022-11-20T02:13:28;101200.31;;;-4.28;87.92
66887;BME280;53798;51.680;5.976;2022-11-20T02:16:20;101194.31;;;-4.27;87.79
66887;BME280;53798;51.680;5.976;2022-11-20T02:18:53;101207.91;;;-4.31;87.51
66887;BME280;53798;51.680;5.976;2022-11-20T02:21:46;101193.97;;;-4.36;87.69
66887;BME280;53798;51.680;5.976;2022-11-20T02:24:22;101198.13;;;-4.40;87.52
66887;BME280;53798;51.680;5.976;2022-11-20T02:26:57;101198.09;;;-4.41;87.58
66887;BME280;53798;51.680;5.976;2022-11-20T02:29:33;101191.84;;;-4.48;87.43
66887;BME280;53798;51.680;5.976;2022-11-20T02:32:04;101203.84;;;-4.48;87.35
66887;BME280;53798;51.680;5.976;2022-11-20T02:34:31;101195.09;;;-4.52;87.52
66887;BME280;53798;51.680;5.976;2022-11-20T02:36:59;101198.53;;;-4.53;87.77
66887;BME280;53798;51.680;5.976;2022-11-20T02:39:27;101192.69;;;-4.47;88.14
66887;BME280;53798;51.680;5.976;2022-11-20T02:41:56;101190.22;;;-4.46;88.08
66887;BME280;53798;51.680;5.976;2022-11-20T02:44:23;101183.34;;;-4.45;88.37
66887;BME280;53798;51.680;5.976;2022-11-20T02:46:50;101187.63;;;-4.46;88.33
66887;BME280;53798;51.680;5.976;2022-11-20T02:49:18;101184.13;;;-4.48;88.09
66887;BME280;53798;51.680;5.976;2022-11-20T02:51:45;101182.41;;;-4.47;88.21
66887;BME280;53798;51.680;5.976;2022-11-20T02:54:12;101172.13;;;-4.47;88.65
66887;BME280;53798;51.680;5.976;2022-11-20T02:56:39;101169.50;;;-4.49;88.51
66887;BME280;53798;51.680;5.976;2022-11-20T02:59:07;101172.84;;;-4.52;88.65
66887;BME280;53798;51.680;5.976;2022-11-20T03:01:34;101182.16;;;-4.55;88.44
66887;BME280;53798;51.680;5.976;2022-11-20T03:04:02;101188.00;;;-4.59;88.23
66887;BME280;53798;51.680;5.976;2022-11-20T03:06:29;101179.28;;;-4.63;88.20
66887;BME280;53798;51.680;5.976;2022-11-20T03:08:57;101180.88;;;-4.66;88.35
66887;BME280;53798;51.680;5.976;2022-11-20T03:11:24;101182.38;;;-4.72;88.31
66887;BME280;53798;51.680;5.976;2022-11-20T03:13:52;101189.22;;;-4.72;88.29
66887;BME280;53798;51.680;5.976;2022-11-20T03:16:22;101191.03;;;-4.70;88.37
66887;BME280;53798;51.680;5.976;2022-11-20T03:18:51;101198.72;;;-4.71;88.26
66887;BME280;53798;51.680;5.976;2022-11-20T03:21:19;101194.38;;;-4.72;88.35
66887;BME280;53798;51.680;5.976;2022-11-20T03:23:47;101200.38;;;-4.72;88.33
66887;BME280;53798;51.680;5.976;2022-11-20T03:26:16;101198.53;;;-4.76;88.16
66887;BME280;53798;51.680;5.976;2022-11-20T03:28:47;101207.13;;;-4.75;88.24
66887;BME280;53798;51.680;5.976;2022-11-20T03:31:20;101196.81;;;-4.75;88.40
66887;BME280;53798;51.680;5.976;2022-11-20T03:33:58;101199.41;;;-4.75;88.46
66887;BME280;53798;51.680;5.976;2022-11-20T03:36:27;101187.34;;;-4.76;88.39
66887;BME280;53798;51.680;5.976;2022-11-20T03:38:55;101188.28;;;-4.74;88.47
66887;BME280;53798;51.680;5.976;2022-11-20T03:41:28;101187.53;;;-4.72;88.63
66887;BME280;53798;51.680;5.976;2022-11-20T03:44:01;101184.03;;;-4.74;88.47
66887;BME280;53798;51.680;5.976;2022-11-20T03:46:30;101174.47;;;-4.76;88.57
66887;BME280;53798;51.680;5.976;2022-11-20T03:48:57;101170.94;;;-4.80;88.68
66887;BME280;53798;51.680;5.976;2022-11-20T03:51:27;101176.84;;;-4.82;88.68
66887;BME280;53798;51.680;5.976;2022-11-20T03:54:01;101181.00;;;-4.86;88.69
66887;BME280;53798;51.680;5.976;2022-11-20T03:56:32;101178.97;;;-4.93;88.60
66887;BME280;53798;51.680;5.976;2022-11-20T03:59:01;101179.66;;;-4.99;88.43
66887;BME280;53798;51.680;5.976;2022-11-20T04:01:34;101179.56;;;-5.01;88.79
66887;BME280;53798;51.680;5.976;2022-11-20T04:04:03;101174.44;;;-5.01;88.82
66887;BME280;53798;51.680;5.976;2022-11-20T04:06:36;101170.22;;;-4.99;88.85
66887;BME280;53798;51.680;5.976;2022-11-20T04:09:05;101177.91;;;-5.00;88.62
66887;BME280;53798;51.680;5.976;2022-11-20T04:11:34;101172.69;;;-5.02;89.03
66887;BME280;53798;51.680;5.976;2022-11-20T04:14:05;101171.00;;;-5.01;89.24
66887;BME280;53798;51.680;5.976;2022-11-20T04:16:35;101161.53;;;-5.02;89.12
66887;BME280;53798;51.680;5.976;2022-11-20T04:19:04;101170.06;;;-5.03;88.99
66887;BME280;53798;51.680;5.976;2022-11-20T04:21:35;101169.88;;;-5.08;89.10
66887;BME280;53798;51.680;5.976;2022-11-20T04:24:02;101157.19;;;-5.03;89.12
66887;BME280;53798;51.680;5.976;2022-11-20T04:26:30;101155.63;;;-5.00;89.47
66887;BME280;53798;51.680;5.976;2022-11-20T04:28:58;101152.09;;;-5.02;89.51
66887;BME280;53798;51.680;5.976;2022-11-20T04:31:28;101144.34;;;-5.03;89.15
66887;BME280;53798;51.680;5.976;2022-11-20T04:34:02;101144.97;;;-5.09;89.19
66887;BME280;53798;51.680;5.976;2022-11-20T04:36:32;101151.69;;;-5.12;88.96
66887;BME280;53798;51.680;5.976;2022-11-20T04:39:03;101144.81;;;-5.13;89.14
66887;BME280;53798;51.680;5.976;2022-11-20T04:41:34;101148.13;;;-5.16;89.12
66887;BME280;53798;51.680;5.976;2022-11-20T04:44:04;101151.53;;;-5.17;88.90
66887;BME280;53798;51.680;5.976;2022-11-20T04:46:38;101155.84;;;-5.16;89.27
66887;BME280;53798;51.680;5.976;2022-11-20T04:49:10;101150.59;;;-5.19;88.94
66887;BME280;53798;51.680;5.976;2022-11-20T04:51:39;101133.41;;;-5.20;89.25
66887;BME280;53798;51.680;5.976;2022-11-20T04:54:06;101129.06;;;-5.21;89.03
66887;BME280;53798;51.680;5.976;2022-11-20T04:56:33;101138.50;;;-5.22;89.22
66887;BME280;53798;51.680;5.976;2022-11-20T04:59:01;101138.38;;;-5.25;89.00
66887;BME280;53798;51.680;5.976;2022-11-20T05:01:31;101146.84;;;-5.27;89.15
66887;BME280;53798;51.680;5.976;2022-11-20T05:03:59;101144.13;;;-5.31;88.83
66887;BME280;53798;51.680;5.976;2022-11-20T05:06:26;101150.03;;;-5.33;88.90
66887;BME280;53798;51.680;5.976;2022-11-20T05:08:53;101138.78;;;-5.37;88.98
66887;BME280;53798;51.680;5.976;2022-11-20T05:11:21;101137.81;;;-5.39;89.07
66887;BME280;53798;51.680;5.976;2022-11-20T05:13:49;101141.22;;;-5.40;89.07
66887;BME280;53798;51.680;5.976;2022-11-20T05:16:20;101138.59;;;-5.41;88.83
66887;BME280;53798;51.680;5.976;2022-11-20T05:18:51;101133.28;;;-5.46;88.85
66887;BME280;53798;51.680;5.976;2022-11-20T05:21:21;101127.22;;;-5.47;89.15
66887;BME280;53798;51.680;5.976;2022-11-20T05:23:48;101127.19;;;-5.48;89.22
66887;BME280;53798;51.680;5.976;2022-11-20T05:26:18;101123.81;;;-5.47;89.25
66887;BME280;53798;51.680;5.976;2022-11-20T05:28:49;101127.22;;;-5.47;89.03
66887;BME280;53798;51.680;5.976;2022-11-20T05:31:20;101123.81;;;-5.47;88.98
66887;BME280;53798;51.680;5.976;2022-11-20T05:33:56;101113.44;;;-5.49;89.21
66887;BME280;53798;51.680;5.976;2022-11-20T05:36:24;101114.22;;;-5.51;89.11
66887;BME280;53798;51.680;5.976;2022-11-20T05:38:52;101112.53;;;-5.51;89.27
66887;BME280;53798;51.680;5.976;2022-11-20T05:41:25;101112.53;;;-5.51;89.42
66887;BME280;53798;51.680;5.976;2022-11-20T05:43:52;101105.56;;;-5.53;89.18
66887;BME280;53798;51.680;5.976;2022-11-20T05:46:20;101102.13;;;-5.54;89.11
66887;BME280;53798;51.680;5.976;2022-11-20T05:48:54;101096.56;;;-5.65;89.21
66887;BME280;53798;51.680;5.976;2022-11-20T05:51:26;101095.53;;;-5.68;88.97
66887;BME280;53798;51.680;5.976;2022-11-20T05:53:56;101094.69;;;-5.69;89.26
66887;BME280;53798;51.680;5.976;2022-11-20T05:56:24;101094.50;;;-5.73;89.05
66887;BME280;53798;51.680;5.976;2022-11-20T05:58:51;101110.72;;;-5.74;89.29
66887;BME280;53798;51.680;5.976;2022-11-20T06:01:23;101114.47;;;-5.66;89.72
66887;BME280;53798;51.680;5.976;2022-11-20T06:03:52;101118.16;;;-5.59;89.56
66887;BME280;53798;51.680;5.976;2022-11-20T06:06:21;101127.06;;;-5.51;89.65
66887;BME280;53798;51.680;5.976;2022-11-20T06:08:49;101126.41;;;-5.46;89.66
66887;BME280;53798;51.680;5.976;2022-11-20T06:11:16;101112.00;;;-5.42;89.81
66887;BME280;53798;51.680;5.976;2022-11-20T06:13:44;101121.63;;;-5.36;89.61
66887;BME280;53798;51.680;5.976;2022-11-20T06:16:14;101125.97;;;-5.35;89.58
66887;BME280;53798;51.680;5.976;2022-11-20T06:18:44;101133.81;;;-5.32;89.88
66887;BME280;53798;51.680;5.976;2022-11-20T06:21:14;101133.72;;;-5.34;89.74
66887;BME280;53798;51.680;5.976;2022-11-20T06:23:43;101144.28;;;-5.27;89.73
66887;BME280;53798;51.680;5.976;2022-11-20T06:26:14;101140.81;;;-5.28;89.81
66887;BME280;53798;51.680;5.976;2022-11-20T06:28:46;101148.59;;;-5.26;89.51
66887;BME280;53798;51.680;5.976;2022-11-20T06:31:14;101148.50;;;-5.28;89.59
66887;BME280;53798;51.680;5.976;2022-11-20T06:33:44;101140.75;;;-5.30;89.81
66887;BME280;53798;51.680;5.976;2022-11-20T06:36:13;101136.50;;;-5.29;89.47
66887;BME280;53798;51.680;5.976;2022-11-20T06:38:42;101138.19;;;-5.30;89.47
66887;BME280;53798;51.680;5.976;2022-11-20T06:41:15;101142.47;;;-5.30;89.57
66887;BME280;53798;51.680;5.976;2022-11-20T06:43:45;101145.84;;;-5.31;89.53
66887;BME280;53798;51.680;5.976;2022-11-20T06:46:15;101147.47;;;-5.33;89.73
66887;BME280;53798;51.680;5.976;2022-11-20T06:48:49;101150.84;;;-5.34;89.57
66887;BME280;53798;51.680;5.976;2022-11-20T06:51:17;101149.09;;;-5.35;89.65
66887;BME280;53798;51.680;5.976;2022-11-20T06:53:45;101148.25;;;-5.36;89.48
66887;BME280;53798;51.680;5.976;2022-11-20T06:56:12;101148.25;;;-5.36;89.33
66887;BME280;53798;51.680;5.976;2022-11-20T06:58:39;101141.25;;;-5.38;89.77
66887;BME280;53798;51.680;5.976;2022-11-20T07:01:10;101142.03;;;-5.41;89.76
66887;BME280;53798;51.680;5.976;2022-11-20T07:03:39;101136.03;;;-5.41;89.58
66887;BME280;53798;51.680;5.976;2022-11-20T07:06:08;101135.13;;;-5.42;89.70
66887;BME280;53798;51.680;5.976;2022-11-20T07:08:35;101134.19;;;-5.44;89.66
66887;BME280;53798;51.680;5.976;2022-11-20T07:11:05;101133.38;;;-5.43;89.65
66887;BME280;53798;51.680;5.976;2022-11-20T07:13:34;101142.28;;;-5.35;90.06
66887;BME280;53798;51.680;5.976;2022-11-20T07:16:04;101140.16;;;-5.22;90.29
66887;BME280;53798;51.680;5.976;2022-11-20T07:18:32;101135.34;;;-5.15;90.29
66887;BME280;53798;51.680;5.976;2022-11-20T07:21:02;101136.75;;;-5.00;90.54
66887;BME280;53798;51.680;5.976;2022-11-20T07:23:31;101137.91;;;-4.92;90.45
66887;BME280;53798;51.680;5.976;2022-11-20T07:26:03;101132.94;;;-4.87;90.54
66887;BME280;53798;51.680;5.976;2022-11-20T07:28:34;101138.38;;;-4.79;90.33
66887;BME280;53798;51.680;5.976;2022-11-20T07:31:02;101135.19;;;-4.72;90.44
66887;BME280;53798;51.680;5.976;2022-11-20T07:33:30;101128.63;;;-4.64;90.53
66887;BME280;53798;51.680;5.976;2022-11-20T07:36:01;101128.34;;;-4.47;90.53
66887;BME280;53798;51.680;5.976;2022-11-20T07:38:28;101125.47;;;-4.32;90.37
66887;BME280;53798;51.680;5.976;2022-11-20T07:40:56;101120.16;;;-4.13;90.58
66887;BME280;53798;51.680;5.976;2022-11-20T07:43:24;101124.28;;;-3.92;90.89
66887;BME280;53798;51.680;5.976;2022-11-20T07:45:52;101112.84;;;-3.73;90.63
66887;BME280;53798;51.680;5.976;2022-11-20T07:48:23;101118.59;;;-3.54;90.50
66887;BME280;53798;51.680;5.976;2022-11-20T07:50:55;101116.44;;;-3.40;90.45
66887;BME280;53798;51.680;5.976;2022-11-20T07:53:23;101116.97;;;-3.23;90.21
66887;BME280;53798;51.680;5.976;2022-11-20T07:55:50;101117.47;;;-3.08;90.12
66887;BME280;53798;51.680;5.976;2022-11-20T07:58:21;101123.00;;;-2.95;90.00
66887;BME280;53798;51.680;5.976;2022-11-20T08:00:48;101122.44;;;-2.85;89.89
66887;BME280;53798;51.680;5.976;2022-11-20T08:03:15;101120.16;;;-2.74;90.04
66887;BME280;53798;51.680;5.976;2022-11-20T08:05:50;101120.53;;;-2.60;90.12
66887;BME280;53798;51.680;5.976;2022-11-20T08:08:18;101123.38;;;-2.51;90.06
66887;BME280;53798;51.680;5.976;2022-11-20T08:10:45;101122.00;;;-2.38;89.98
66887;BME280;53798;51.680;5.976;2022-11-20T08:13:12;101124.97;;;-2.24;89.97
66887;BME280;53798;51.680;5.976;2022-11-20T08:15:57;101121.75;;;-2.15;90.02
66887;BME280;53798;51.680;5.976;2022-11-20T08:18:26;101120.28;;;-2.06;89.87
66887;BME280;53798;51.680;5.976;2022-11-20T08:21:02;101118.78;;;-1.96;89.67
66887;BME280;53798;51.680;5.976;2022-11-20T08:23:31;101122.41;;;-1.89;89.54
66887;BME280;53798;51.680;5.976;2022-11-20T08:25:58;101118.25;;;-1.84;89.22
66887;BME280;53798;51.680;5.976;2022-11-20T08:28:26;101119.31;;;-1.76;89.27
66887;BME280;53798;51.680;5.976;2022-11-20T08:31:01;101120.47;;;-1.64;89.27
66887;BME280;53798;51.680;5.976;2022-11-20T08:33:30;101118.03;;;-1.57;89.39
66887;BME280;53798;51.680;5.976;2022-11-20T08:36:00;101107.88;;;-1.49;89.07
66887;BME280;53798;51.680;5.976;2022-11-20T08:38:31;101109.63;;;-1.48;88.99
66887;BME280;53798;51.680;5.976;2022-11-20T08:41:01;101106.22;;;-1.47;88.82
66887;BME280;53798;51.680;5.976;2022-11-20T08:43:54;101099.38;;;-1.43;88.82
66887;BME280;53798;51.680;5.976;2022-11-20T08:46:24;101097.81;;;-1.36;88.72
66887;BME280;53798;51.680;5.976;2022-11-20T08:48:53;101106.59;;;-1.30;88.28
66887;BME280;53798;51.680;5.976;2022-11-20T08:51:20;101113.72;;;-1.19;88.31
66887;BME280;53798;51.680;5.976;2022-11-20T08:53:48;101100.19;;;-1.06;88.32
66887;BME280;53798;51.680;5.976;2022-11-20T08:56:16;101097.97;;;-0.89;88.33
66887;BME280;53798;51.680;5.976;2022-11-20T08:58:44;101094.00;;;-0.73;88.06
66887;BME280;53798;51.680;5.976;2022-11-20T09:01:31;101091.66;;;-0.60;87.38
66887;BME280;53798;51.680;5.976;2022-11-20T09:03:58;101096.09;;;-0.53;87.20
66887;BME280;53798;51.680;5.976;2022-11-20T09:06:26;101086.66;;;-0.51;87.25
66887;BME280;53798;51.680;5.976;2022-11-20T09:08:54;101081.56;;;-0.47;87.20
66887;BME280;53798;51.680;5.976;2022-11-20T09:11:21;101081.56;;;-0.45;87.04
66887;BME280;53798;51.680;5.976;2022-11-20T09:13:49;101089.44;;;-0.40;86.99
66887;BME280;53798;51.680;5.976;2022-11-20T09:16:16;101073.16;;;-0.33;87.08
66887;BME280;53798;51.680;5.976;2022-11-20T09:18:43;101077.63;;;-0.24;87.11
66887;BME280;53798;51.680;5.976;2022-11-20T09:21:12;101081.25;;;-0.16;86.94
66887;BME280;53798;51.680;5.976;2022-11-20T09:23:41;101085.69;;;-0.09;87.13
66887;BME280;53798;51.680;5.976;2022-11-20T09:26:13;101074.63;;;0.00;86.94
66887;BME280;53798;51.680;5.976;2022-11-20T09:28:40;101070.44;;;0.10;87.12
66887;BME280;53798;51.680;5.976;2022-11-20T09:31:12;101050.72;;;0.20;87.10
66887;BME280;53798;51.680;5.976;2022-11-20T09:33:48;101062.94;;;0.27;86.45
66887;BME280;53798;51.680;5.976;2022-11-20T09:36:16;101066.47;;;0.32;86.25
66887;BME280;53798;51.680;5.976;2022-11-20T09:38:45;101063.09;;;0.38;86.35
66887;BME280;53798;51.680;5.976;2022-11-20T09:44:32;101055.56;;;0.53;85.93
66887;BME280;53798;51.680;5.976;2022-11-20T09:47:57;101053.94;;;0.61;85.65
66887;BME280;53798;51.680;5.976;2022-11-20T09:50:43;101053.16;;;0.69;85.36
66887;BME280;53798;51.680;5.976;2022-11-20T09:53:41;101054.91;;;0.71;84.81
66887;BME280;53798;51.680;5.976;2022-11-20T09:56:13;101052.31;;;0.70;84.80
66887;BME280;53798;51.680;5.976;2022-11-20T09:58:54;101045.41;;;0.70;84.87
66887;BME280;53798;51.680;5.976;2022-11-20T10:01:30;101040.25;;;0.73;85.04
66887;BME280;53798;51.680;5.976;2022-11-20T10:04:03;101040.34;;;0.80;85.07
66887;BME280;53798;51.680;5.976;2022-11-20T10:06:37;101035.22;;;0.84;84.81
66887;BME280;53798;51.680;5.976;2022-11-20T10:12:47;101042.38;;;1.04;85.48
66887;BME280;53798;51.680;5.976;2022-11-20T10:26:26;101013.44;;;1.51;85.77
66887;BME280;53798;51.680;5.976;2022-11-20T10:29:12;101020.50;;;1.65;85.85
66887;BME280;53798;51.680;5.976;2022-11-20T10:31:47;101017.13;;;1.77;86.16
66887;BME280;53798;51.680;5.976;2022-11-20T10:34:25;101007.75;;;1.91;86.02
66887;BME280;53798;51.680;5.976;2022-11-20T10:37:02;101006.97;;;2.03;85.59
66887;BME280;53798;51.680;5.976;2022-11-20T10:42:48;100978.47;;;2.20;85.00
66887;BME280;53798;51.680;5.976;2022-11-20T10:48:10;100975.91;;;2.26;84.70
66887;BME280;53798;51.680;5.976;2022-11-20T10:50:59;100976.81;;;2.31;84.81
66887;BME280;53798;51.680;5.976;2022-11-20T10:56:56;100962.97;;;2.40;84.33
66887;BME280;53798;51.680;5.976;2022-11-20T11:02:23;100959.47;;;2.29;83.23
66887;BME280;53798;51.680;5.976;2022-11-20T11:04:58;100943.78;;;2.23;83.37
66887;BME280;53798;51.680;5.976;2022-11-20T11:07:40;100938.59;;;2.24;83.90
66887;BME280;53798;51.680;5.976;2022-11-20T11:13:19;100932.56;;;2.35;83.87
66887;BME280;53798;51.680;5.976;2022-11-20T11:15:51;100920.44;;;2.30;83.83
66887;BME280;53798;51.680;5.976;2022-11-20T11:18:37;100919.56;;;2.31;83.85
66887;BME280;53798;51.680;5.976;2022-11-20T11:21:04;100912.63;;;2.30;83.87
66887;BME280;53798;51.680;5.976;2022-11-20T11:23:37;100903.94;;;2.28;83.52
66887;BME280;53798;51.680;5.976;2022-11-20T11:26:07;100890.91;;;2.22;83.78
66887;BME280;53798;51.680;5.976;2022-11-20T11:29:01;100882.25;;;2.28;83.96
66887;BME280;53798;51.680;5.976;2022-11-20T11:31:34;100885.75;;;2.31;83.63
66887;BME280;53798;51.680;5.976;2022-11-20T11:34:13;100878.84;;;2.38;83.24
66887;BME280;53798;51.680;5.976;2022-11-20T11:36:51;100874.50;;;2.39;83.11
66887;BME280;53798;51.680;5.976;2022-11-20T11:39:23;100872.75;;;2.39;83.13
66887;BME280;53798;51.680;5.976;2022-11-20T11:41:52;100874.47;;;2.40;83.54
66887;BME280;53798;51.680;5.976;2022-11-20T11:44:46;100862.38;;;2.47;83.62
66887;BME280;53798;51.680;5.976;2022-11-20T11:47:37;100869.34;;;2.54;83.73
66887;BME280;53798;51.680;5.976;2022-11-20T11:50:23;100869.38;;;2.60;83.79
66887;BME280;53798;51.680;5.976;2022-11-20T11:55:47;100859.84;;;2.78;83.66
66887;BME280;53798;51.680;5.976;2022-11-20T11:58:44;100868.56;;;2.91;83.63
66887;BME280;53798;51.680;5.976;2022-11-20T12:04:33;100860.75;;;3.03;83.67
66887;BME280;53798;51.680;5.976;2022-11-20T12:07:22;100857.31;;;3.07;83.60
66887;BME280;53798;51.680;5.976;2022-11-20T12:12:51;100855.59;;;3.05;83.99
66887;BME280;53798;51.680;5.976;2022-11-20T12:15:28;100858.16;;;3.02;84.01
66887;BME280;53798;51.680;5.976;2022-11-20T12:17:58;100854.69;;;2.98;84.19
66887;BME280;53798;51.680;5.976;2022-11-20T12:20:30;100840.81;;;2.99;84.33
66887;BME280;53798;51.680;5.976;2022-11-20T12:23:33;100830.38;;;2.96;84.43
66887;BME280;53798;51.680;5.976;2022-11-20T12:26:31;100825.16;;;2.93;84.49
66887;BME280;53798;51.680;5.976;2022-11-20T12:29:35;100812.13;;;2.88;84.54
66887;BME280;53798;51.680;5.976;2022-11-20T12:41:15;100790.44;;;2.89;86.64
66887;BME280;53798;51.680;5.976;2022-11-20T12:44:44;100784.34;;;2.92;87.34
66887;BME280;53798;51.680;5.976;2022-11-20T12:47:52;100776.56;;;2.89;87.30
66887;BME280;53798;51.680;5.976;2022-11-20T12:57:13;100764.41;;;2.83;87.88
66887;BME280;53798;51.680;5.976;2022-11-20T13:08:24;100748.75;;;2.82;88.94
66887;BME280;53798;51.680;5.976;2022-11-20T13:11:21;100727.94;;;2.82;89.16
66887;BME280;53798;51.680;5.976;2022-11-20T13:19:12;100700.16;;;2.74;89.47
66887;BME280;53798;51.680;5.976;2022-11-20T13:21:47;100700.19;;;2.77;89.90
66887;BME280;53798;51.680;5.976;2022-11-20T13:27:05;100701.91;;;2.85;90.23
66887;BME280;53798;51.680;5.976;2022-11-20T13:29:59;100699.31;;;2.88;90.57
66887;BME280;53798;51.680;5.976;2022-11-20T13:38:48;100687.13;;;2.96;90.83
66887;BME280;53798;51.680;5.976;2022-11-20T13:41:28;100671.50;;;3.02;91.06
66887;BME280;53798;51.680;5.976;2022-11-20T13:44:25;100668.88;;;3.05;91.05
66887;BME280;53798;51.680;5.976;2022-11-20T13:47:20;100651.50;;;3.14;91.14
66887;BME280;53798;51.680;5.976;2022-11-20T13:49:54;100645.41;;;3.15;91.20
66887;BME280;53798;51.680;5.976;2022-11-20T13:52:53;100635.84;;;3.18;91.34
66887;BME280;53798;51.680;5.976;2022-11-20T13:58:43;100638.44;;;3.23;91.62
66887;BME280;53798;51.680;5.976;2022-11-20T14:01:24;100625.44;;;3.18;91.56
66887;BME280;53798;51.680;5.976;2022-11-20T14:03:55;100623.69;;;3.17;91.66
66887;BME280;53798;51.680;5.976;2022-11-20T14:06:38;100626.34;;;3.14;91.78
66887;BME280;53798;51.680;5.976;2022-11-20T14:09:11;100608.94;;;3.16;91.68
66887;BME280;53798;51.680;5.976;2022-11-20T14:11:50;100608.09;;;3.13;91.92
66887;BME280;53798;51.680;5.976;2022-11-20T14:14:20;100602.03;;;3.09;92.01
66887;BME280;53798;51.680;5.976;2022-11-20T14:16:50;100595.06;;;3.11;91.91
66887;BME280;53798;51.680;5.976;2022-11-20T14:22:06;100584.66;;;3.06;92.54
66887;BME280;53798;51.680;5.976;2022-11-20T14:24:37;100566.47;;;3.02;92.62
66887;BME280;53798;51.680;5.976;2022-11-20T14:27:11;100568.19;;;3.01;92.80
66887;BME280;53798;51.680;5.976;2022-11-20T14:29:45;100566.44;;;3.00;92.97
66887;BME280;53798;51.680;5.976;2022-11-20T14:32:17;100558.63;;;2.99;93.28
66887;BME280;53798;51.680;5.976;2022-11-20T14:34:49;100566.47;;;2.97;93.49
66887;BME280;53798;51.680;5.976;2022-11-20T14:37:20;100567.34;;;2.99;93.79
66887;BME280;53798;51.680;5.976;2022-11-20T14:39:53;100558.63;;;3.02;94.02
66887;BME280;53798;51.680;5.976;2022-11-20T14:42:25;100556.00;;;3.08;94.13
66887;BME280;53798;51.680;5.976;2022-11-20T14:44:58;100553.41;;;3.11;94.14
66887;BME280;53798;51.680;5.976;2022-11-20T14:47:30;100550.78;;;3.13;94.16
66887;BME280;53798;51.680;5.976;2022-11-20T14:49:58;100548.19;;;3.11;94.23
66887;BME280;53798;51.680;5.976;2022-11-20T14:52:35;100545.56;;;3.13;94.39